TimeCDT,TemperatureF,Dew PointF,Humidity,Sea Level PressureIn,VisibilityMPH,Wind Direction,Wind SpeedMPH,Gust SpeedMPH,PrecipitationIn,Events,Conditions,WindDirDegrees,DateUTC
12:14 AM,33.1,31.1,92,30.18,10.0,WNW,8.1,-,N/A,,Overcast,290,2013-10-24 05:14:00
12:34 AM,33.8,30.9,89,30.19,10.0,WNW,10.4,-,N/A,,Overcast,300,2013-10-24 05:34:00
12:53 AM,34.0,30.9,89,30.19,10.0,NW,10.4,-,N/A,,Overcast,310,2013-10-24 05:53:00
1:14 AM,34.2,30.7,87,30.19,10.0,NW,10.4,-,N/A,,Overcast,320,2013-10-24 06:14:00
1:34 AM,33.8,30.9,89,30.20,10.0,WNW,8.1,-,N/A,,Mostly Cloudy,300,2013-10-24 06:34:00
1:53 AM,34.0,30.9,89,30.20,10.0,WNW,8.1,-,N/A,,Overcast,300,2013-10-24 06:53:00
2:14 AM,34.0,31.1,89,30.20,10.0,WNW,5.8,-,N/A,,Overcast,290,2013-10-24 07:14:00
2:34 AM,33.8,31.5,91,30.20,10.0,West,6.9,-,N/A,,Overcast,280,2013-10-24 07:34:00
2:54 AM,34.7,31.1,87,30.21,10.0,WNW,10.4,-,N/A,,Overcast,300,2013-10-24 07:54:00
3:14 AM,35.6,31.1,84,30.21,10.0,NW,10.4,-,N/A,,Overcast,320,2013-10-24 08:14:00
3:34 AM,35.6,31.6,85,30.22,10.0,NW,12.7,-,N/A,Snow,Light Snow,320,2013-10-24 08:34:00
3:54 AM,34.9,32.0,89,30.22,10.0,NW,12.7,-,N/A,,Overcast,310,2013-10-24 08:54:00
4:13 AM,34.7,32.0,90,30.22,10.0,WNW,10.4,-,N/A,,Overcast,300,2013-10-24 09:13:00
4:34 AM,34.3,32.0,91,30.23,10.0,WNW,6.9,-,N/A,,Overcast,290,2013-10-24 09:34:00
4:54 AM,34.7,32.0,90,30.23,10.0,WNW,8.1,-,N/A,,Overcast,290,2013-10-24 09:54:00
5:14 AM,35.1,31.6,87,30.23,10.0,West,9.2,-,N/A,,Overcast,280,2013-10-24 10:14:00
5:34 AM,34.0,30.6,87,30.24,10.0,WNW,6.9,-,N/A,,Scattered Clouds,290,2013-10-24 10:34:00
5:54 AM,32.0,29.8,92,30.25,10.0,West,5.8,-,N/A,,Clear,280,2013-10-24 10:54:00
6:14 AM,32.0,29.7,91,30.25,10.0,West,5.8,-,N/A,,Scattered Clouds,270,2013-10-24 11:14:00
6:34 AM,33.1,30.7,91,30.26,10.0,WNW,8.1,-,N/A,,Overcast,290,2013-10-24 11:34:00
6:54 AM,34.3,31.5,89,30.26,10.0,NW,12.7,-,N/A,,Mostly Cloudy,310,2013-10-24 11:54:00
7:14 AM,34.0,31.8,92,30.26,10.0,WNW,9.2,-,N/A,,Overcast,290,2013-10-24 12:14:00
7:34 AM,33.3,31.5,93,30.26,10.0,WNW,5.8,-,N/A,,Scattered Clouds,290,2013-10-24 12:34:00
7:54 AM,32.5,31.1,94,30.27,10.0,West,5.8,-,N/A,,Mostly Cloudy,270,2013-10-24 12:54:00
8:14 AM,32.2,30.9,95,30.27,10.0,West,9.2,-,N/A,,Scattered Clouds,280,2013-10-24 13:14:00
8:34 AM,33.6,31.1,90,30.28,10.0,West,9.2,-,N/A,,Scattered Clouds,280,2013-10-24 13:34:00
8:54 AM,34.7,31.3,87,30.28,10.0,West,10.4,-,N/A,,Scattered Clouds,280,2013-10-24 13:54:00
9:14 AM,34.9,31.1,86,30.29,10.0,WNW,10.4,-,N/A,,Clear,290,2013-10-24 14:14:00
9:34 AM,36.5,31.8,83,30.29,10.0,WNW,11.5,-,N/A,,Clear,290,2013-10-24 14:34:00
9:54 AM,37.6,32.2,81,30.30,10.0,WNW,10.4,-,N/A,,Clear,290,2013-10-24 14:54:00
10:14 AM,39.0,32.2,76,30.30,10.0,WNW,10.4,-,N/A,,Clear,290,2013-10-24 15:14:00
10:34 AM,40.1,32.2,73,30.30,10.0,NW,11.5,-,N/A,,Clear,310,2013-10-24 15:34:00
10:54 AM,41.2,32.2,70,30.30,10.0,NW,8.1,-,N/A,,Clear,310,2013-10-24 15:54:00
11:13 AM,42.4,32.2,67,30.30,10.0,NW,10.4,-,N/A,,Clear,310,2013-10-24 16:13:00
11:34 AM,43.7,32.0,63,30.30,10.0,NW,11.5,-,N/A,,Clear,310,2013-10-24 16:34:00
11:54 AM,44.6,31.3,60,30.30,10.0,WNW,19.6,24.2,N/A,,Scattered Clouds,300,2013-10-24 16:54:00
12:14 PM,44.6,30.9,59,30.30,10.0,NW,13.8,-,N/A,,Scattered Clouds,320,2013-10-24 17:14:00
12:34 PM,45.7,30.6,56,30.30,10.0,NW,17.3,26.5,N/A,,Scattered Clouds,310,2013-10-24 17:34:00
12:54 PM,46.4,30.2,53,30.30,10.0,NW,17.3,25.3,N/A,,Scattered Clouds,310,2013-10-24 17:54:00
1:14 PM,46.6,29.7,52,30.29,10.0,NW,17.3,24.2,N/A,,Scattered Clouds,310,2013-10-24 18:14:00
1:34 PM,46.6,28.4,49,30.29,10.0,WNW,18.4,24.2,N/A,,Scattered Clouds,300,2013-10-24 18:34:00
1:54 PM,46.8,28.8,50,30.28,10.0,NW,16.1,21.9,N/A,,Scattered Clouds,320,2013-10-24 18:54:00
2:14 PM,46.2,27.0,47,30.28,10.0,NW,17.3,25.3,N/A,,Scattered Clouds,310,2013-10-24 19:14:00
2:34 PM,47.5,27.9,47,30.28,10.0,NW,18.4,25.3,N/A,,Mostly Cloudy,320,2013-10-24 19:34:00
2:54 PM,47.5,28.6,48,30.28,10.0,NW,20.7,24.2,N/A,,Mostly Cloudy,310,2013-10-24 19:54:00
3:14 PM,45.3,28.0,51,30.28,10.0,NW,18.4,24.2,N/A,,Mostly Cloudy,320,2013-10-24 20:14:00
3:34 PM,45.3,30.4,56,30.29,10.0,NNW,11.5,20.7,N/A,,Scattered Clouds,330,2013-10-24 20:34:00
3:54 PM,44.6,32.0,61,30.30,10.0,NNW,15.0,20.7,N/A,,Mostly Cloudy,330,2013-10-24 20:54:00
4:14 PM,42.6,31.3,64,30.30,10.0,NNW,12.7,20.7,N/A,,Scattered Clouds,330,2013-10-24 21:14:00
4:34 PM,42.6,30.6,62,30.30,10.0,North,16.1,21.9,N/A,,Clear,350,2013-10-24 21:34:00
4:54 PM,42.3,30.4,63,30.30,10.0,NNW,15.0,-,N/A,,Clear,340,2013-10-24 21:54:00
5:14 PM,41.5,30.2,64,30.31,10.0,NNW,11.5,20.7,N/A,,Clear,340,2013-10-24 22:14:00
5:34 PM,40.8,29.7,64,30.31,10.0,North,9.2,-,N/A,,Clear,360,2013-10-24 22:34:00
5:54 PM,39.6,29.3,67,30.31,10.0,NNW,9.2,-,N/A,,Clear,340,2013-10-24 22:54:00
6:14 PM,37.8,29.3,72,30.32,10.0,NNW,6.9,-,N/A,,Clear,340,2013-10-24 23:14:00
6:34 PM,36.7,28.8,73,30.32,10.0,NNW,6.9,-,N/A,,Clear,330,2013-10-24 23:34:00
6:54 PM,35.2,28.4,76,30.32,10.0,NNW,6.9,-,N/A,,Clear,340,2013-10-24 23:54:00
7:14 PM,34.2,28.4,79,30.32,10.0,NNW,4.6,-,N/A,,Clear,330,2013-10-25 00:14:00
7:34 PM,33.1,27.9,81,30.32,10.0,West,3.5,-,N/A,,Clear,280,2013-10-25 00:34:00
7:54 PM,32.0,27.7,84,30.33,10.0,Calm,Calm,-,N/A,,Clear,0,2013-10-25 00:54:00
8:14 PM,31.8,27.5,84,30.33,10.0,WSW,3.5,-,N/A,,Clear,250,2013-10-25 01:14:00
8:34 PM,31.1,27.3,86,30.33,10.0,West,5.8,-,N/A,,Clear,260,2013-10-25 01:34:00
8:54 PM,30.0,26.6,87,30.33,10.0,WSW,5.8,-,N/A,,Clear,250,2013-10-25 01:54:00
9:14 PM,29.3,26.4,89,30.33,10.0,WSW,4.6,-,N/A,,Clear,250,2013-10-25 02:14:00
9:34 PM,29.1,26.1,88,30.33,10.0,WSW,4.6,-,N/A,,Clear,240,2013-10-25 02:34:00
9:54 PM,28.9,25.9,88,30.33,10.0,WSW,4.6,-,N/A,,Clear,250,2013-10-25 02:54:00
10:14 PM,29.3,25.7,86,30.34,10.0,WSW,4.6,-,N/A,,Clear,250,2013-10-25 03:14:00
10:34 PM,28.2,25.2,88,30.34,10.0,WSW,4.6,-,N/A,,Clear,250,2013-10-25 03:34:00
10:54 PM,28.0,24.8,88,30.34,10.0,WSW,3.5,-,N/A,,Clear,250,2013-10-25 03:54:00
11:14 PM,27.0,24.4,90,30.34,10.0,Calm,Calm,-,N/A,,Clear,0,2013-10-25 04:14:00
11:34 PM,26.8,24.3,90,30.34,10.0,Calm,Calm,-,N/A,,Clear,0,2013-10-25 04:34:00
11:54 PM,26.6,24.3,91,30.34,10.0,SW,4.6,-,N/A,,Clear,230,2013-10-25 04:54:00